createdAt,value
2023-04-16T00:01:15.817Z,34.40
2023-04-16T00:03:42.481Z,36.08
2023-04-16T00:06:10.891Z,36.13
2023-04-16T00:08:37.376Z,34.40
2023-04-16T00:11:03.854Z,35.38
2023-04-16T00:13:30.433Z,33.75
2023-04-16T00:15:57.061Z,34.20
2023-04-16T00:18:23.597Z,33.15
2023-04-16T00:20:50.744Z,37.72
2023-04-16T00:23:17.388Z,37.63
2023-04-16T00:25:43.826Z,34.75
2023-04-16T00:28:11.151Z,36.17
2023-04-16T00:30:37.849Z,34.33
2023-04-16T00:33:04.778Z,36.13
2023-04-16T00:35:31.279Z,34.72
2023-04-16T00:37:57.710Z,36.08
2023-04-16T00:40:27.667Z,35.58
2023-04-16T00:42:54.063Z,32.45
2023-04-16T00:45:20.593Z,35.50
2023-04-16T00:47:47.106Z,30.40
2023-04-16T00:50:14.213Z,36.97
2023-04-16T00:52:40.831Z,32.17
2023-04-16T00:55:07.985Z,30.30
2023-04-16T00:57:34.439Z,34.67
2023-04-16T01:00:00.886Z,38.42
2023-04-16T01:02:27.512Z,33.60
2023-04-16T01:04:55.136Z,30.85
2023-04-16T01:07:21.990Z,30.85
2023-04-16T01:09:48.483Z,32.10
2023-04-16T01:12:15.003Z,33.40
2023-04-16T01:14:41.452Z,32.72
2023-04-16T01:17:07.906Z,31.77
2023-04-16T01:19:37.111Z,29.10
2023-04-16T01:22:04.736Z,29.45
2023-04-16T01:24:31.915Z,30.25
2023-04-16T01:26:59.293Z,34.17
2023-04-16T01:29:26.386Z,31.65
2023-04-16T01:31:52.911Z,29.73
2023-04-16T01:34:19.405Z,31.52
2023-04-16T01:36:45.815Z,32.47
2023-04-16T01:39:15.523Z,29.70
2023-04-16T01:41:43.685Z,33.20
2023-04-16T01:44:10.304Z,33.60
2023-04-16T01:46:37.904Z,32.33
2023-04-16T01:49:05.551Z,30.17
2023-04-16T01:51:32.300Z,35.28
2023-04-16T01:53:58.854Z,29.42
2023-04-16T01:56:25.781Z,30.30
2023-04-16T01:58:52.900Z,32.22
2023-04-16T02:01:19.454Z,29.27
2023-04-16T02:03:46.280Z,32.88
2023-04-16T02:06:12.898Z,32.35
2023-04-16T02:08:39.378Z,30.27
2023-04-16T02:11:05.814Z,26.95
2023-04-16T02:13:32.289Z,29.63
2023-04-16T02:15:58.833Z,25.85
2023-04-16T02:18:25.380Z,27.58
2023-04-16T02:20:51.816Z,30.33
2023-04-16T02:23:18.259Z,32.33
2023-04-16T02:25:46.280Z,31.90
2023-04-16T02:28:15.010Z,30.67
2023-04-16T02:30:41.824Z,29.92
2023-04-16T02:33:09.583Z,27.05
2023-04-16T02:35:36.567Z,28.73
2023-04-16T02:38:04.242Z,30.40
2023-04-16T02:40:31.322Z,27.98
2023-04-16T02:42:57.801Z,31.77
2023-04-16T02:45:24.816Z,32.35
2023-04-16T02:47:51.729Z,33.15
2023-04-16T02:50:18.520Z,33.33
2023-04-16T02:52:45.009Z,32.85
2023-04-16T02:55:11.716Z,32.70
2023-04-16T02:57:38.197Z,38.13
2023-04-16T03:00:05.109Z,33.03
2023-04-16T03:02:31.838Z,32.65
2023-04-16T03:04:58.513Z,33.53
2023-04-16T03:07:25.132Z,32.63
2023-04-16T03:09:51.794Z,35.50
2023-04-16T03:12:18.319Z,36.72
2023-04-16T03:14:44.752Z,32.60
2023-04-16T03:17:11.493Z,34.15
2023-04-16T03:19:38.045Z,28.05
2023-04-16T03:22:04.539Z,35.42
2023-04-16T03:24:31.053Z,28.50
2023-04-16T03:26:58.266Z,32.88
2023-04-16T03:29:26.673Z,32.65
2023-04-16T03:31:53.147Z,34.30
2023-04-16T03:34:19.643Z,33.08
2023-04-16T03:36:46.356Z,33.47
2023-04-16T03:39:12.793Z,30.23
2023-04-16T03:41:39.270Z,34.80
2023-04-16T03:44:05.763Z,30.90
2023-04-16T03:46:32.340Z,33.30
2023-04-16T03:48:58.811Z,33.33
2023-04-16T03:51:26.450Z,32.28
2023-04-16T03:53:53.032Z,29.65
2023-04-16T03:56:19.545Z,32.58
2023-04-16T03:58:46.063Z,30.35
2023-04-16T04:01:12.515Z,28.35
2023-04-16T04:03:39.219Z,27.92
2023-04-16T04:06:09.460Z,34.97
2023-04-16T04:08:35.905Z,30.05
2023-04-16T04:11:02.308Z,27.98
2023-04-16T04:13:28.783Z,29.63
2023-04-16T04:15:55.278Z,28.38
2023-04-16T04:18:21.794Z,32.75
2023-04-16T04:20:48.245Z,36.35
2023-04-16T04:23:14.716Z,32.40
2023-04-16T04:25:41.140Z,35.05
2023-04-16T04:28:07.616Z,34.80
2023-04-16T04:30:35.731Z,34.28
2023-04-16T04:33:02.299Z,34.17
2023-04-16T04:35:28.803Z,31.25
2023-04-16T04:37:55.263Z,34.58
2023-04-16T04:40:21.756Z,35.17
2023-04-16T04:42:48.239Z,35.50
2023-04-16T04:45:14.773Z,40.10
2023-04-16T04:47:41.340Z,35.17
2023-04-16T04:50:08.271Z,37.20
2023-04-16T04:52:34.725Z,35.63
2023-04-16T04:55:01.300Z,38.22
2023-04-16T04:57:27.774Z,35.80
2023-04-16T04:59:54.171Z,37.85
2023-04-16T05:02:20.812Z,39.05
2023-04-16T05:04:47.370Z,36.90
2023-04-16T05:07:13.852Z,38.30
2023-04-16T05:09:40.499Z,35.63
2023-04-16T05:12:07.092Z,36.30
2023-04-16T05:14:33.616Z,38.90
2023-04-16T05:17:00.229Z,35.70
2023-04-16T05:19:26.733Z,33.53
2023-04-16T05:21:53.165Z,32.13
2023-04-16T05:24:19.972Z,33.20
2023-04-16T05:26:46.425Z,32.72
2023-04-16T05:29:12.866Z,29.20
2023-04-16T05:31:39.360Z,29.75
2023-04-16T05:34:05.816Z,35.50
2023-04-16T05:36:32.338Z,28.75
2023-04-16T05:38:58.739Z,33.83
2023-04-16T05:41:25.537Z,34.75
2023-04-16T05:43:52.002Z,30.77
2023-04-16T05:46:18.435Z,27.27
2023-04-16T05:48:44.867Z,31.13
2023-04-16T05:51:11.496Z,28.08
2023-04-16T05:53:37.917Z,31.25
2023-04-16T05:56:04.552Z,27.60
2023-04-16T05:58:30.986Z,27.95
2023-04-16T06:00:57.440Z,25.30
2023-04-16T06:03:24.002Z,28.60
2023-04-16T06:05:50.849Z,26.77
2023-04-16T06:08:17.311Z,25.60
2023-04-16T06:10:46.117Z,23.60
2023-04-16T06:13:12.583Z,25.65
2023-04-16T06:15:39.066Z,24.35
2023-04-16T06:18:05.759Z,26.80
2023-04-16T06:20:32.284Z,26.85
2023-04-16T06:22:58.799Z,25.95
2023-04-16T06:25:25.232Z,26.83
2023-04-16T06:27:51.644Z,28.27
2023-04-16T06:30:19.831Z,26.00
2023-04-16T06:32:46.641Z,28.70
2023-04-16T06:35:13.292Z,25.27
2023-04-16T06:37:39.704Z,22.73
2023-04-16T06:40:06.693Z,29.60
2023-04-16T06:42:33.280Z,24.88
2023-04-16T06:44:59.754Z,27.33
2023-04-16T06:47:27.091Z,23.17
2023-04-16T06:49:53.659Z,23.25
2023-04-16T06:52:20.165Z,25.42
2023-04-16T06:54:46.583Z,29.77
2023-04-16T06:57:13.041Z,25.70
2023-04-16T06:59:39.623Z,29.90
2023-04-16T07:02:07.398Z,25.13
2023-04-16T07:04:33.864Z,25.00
2023-04-16T07:07:00.263Z,22.23
2023-04-16T07:09:27.224Z,23.98
2023-04-16T07:11:54.259Z,25.20
2023-04-16T07:14:20.960Z,21.38
2023-04-16T07:16:47.426Z,26.67
2023-04-16T07:19:13.973Z,27.80
2023-04-16T07:21:42.019Z,23.95
2023-04-16T07:24:08.554Z,22.27
2023-04-16T07:29:00.253Z,21.88
2023-04-16T07:31:27.078Z,26.00
2023-04-16T07:33:53.716Z,23.35
2023-04-16T07:36:20.847Z,21.48
2023-04-16T07:38:47.363Z,20.48
2023-04-16T07:41:15.296Z,23.05
2023-04-16T07:43:41.884Z,20.27
2023-04-16T07:46:08.426Z,23.20
2023-04-16T07:48:34.904Z,18.30
2023-04-16T07:51:01.512Z,18.90
2023-04-16T07:53:28.084Z,21.58
2023-04-16T07:55:54.698Z,19.15
2023-04-16T07:58:21.228Z,19.70
2023-04-16T08:00:49.308Z,19.17
2023-04-16T08:03:18.309Z,19.25
2023-04-16T08:05:45.336Z,20.95
2023-04-16T08:08:11.873Z,17.75
2023-04-16T08:10:39.368Z,21.90
2023-04-16T08:13:05.939Z,18.80
2023-04-16T08:15:32.531Z,18.20
2023-04-16T08:17:59.727Z,22.75
2023-04-16T08:20:26.323Z,20.73
2023-04-16T08:22:54.209Z,20.70
2023-04-16T08:25:20.838Z,18.15
2023-04-16T08:27:47.447Z,20.80
2023-04-16T08:30:15.176Z,20.60
2023-04-16T08:32:41.724Z,18.70
2023-04-16T08:35:08.846Z,20.90
2023-04-16T08:37:35.481Z,16.73
2023-04-16T08:40:02.604Z,17.10
2023-04-16T08:42:34.165Z,17.65
2023-04-16T08:45:07.056Z,18.40
2023-04-16T08:47:35.608Z,18.05
2023-04-16T08:50:05.213Z,18.08
2023-04-16T08:52:32.514Z,16.73
2023-04-16T08:55:08.970Z,15.00
2023-04-16T08:57:40.315Z,13.57
2023-04-16T09:00:09.905Z,18.00
2023-04-16T09:02:37.171Z,17.30
2023-04-16T09:05:06.565Z,19.58
2023-04-16T09:07:34.338Z,16.67
2023-04-16T09:10:01.590Z,27.17
2023-04-16T09:12:28.165Z,15.70
2023-04-16T09:14:55.957Z,16.38
2023-04-16T09:17:22.790Z,17.25
2023-04-16T09:19:49.320Z,15.95
2023-04-16T09:22:17.187Z,16.35
2023-04-16T09:24:43.721Z,12.68
2023-04-16T09:27:11.167Z,15.45
2023-04-16T09:29:39.640Z,15.23
2023-04-16T09:32:11.076Z,12.85
2023-04-16T09:35:00.585Z,13.18
2023-04-16T09:37:30.921Z,15.07
2023-04-16T09:39:59.653Z,16.05
2023-04-16T09:42:36.196Z,12.65
2023-04-16T09:45:05.111Z,15.50
2023-04-16T09:47:43.955Z,17.23
2023-04-16T09:50:17.740Z,16.45
2023-04-16T09:52:51.128Z,15.55
2023-04-16T09:55:23.412Z,15.43
2023-04-16T09:57:58.587Z,17.00
2023-04-16T10:00:25.074Z,14.10
2023-04-16T10:03:03.629Z,17.17
2023-04-16T10:05:30.243Z,18.63
2023-04-16T10:08:00.575Z,19.40
2023-04-16T10:10:27.113Z,19.42
2023-04-16T10:12:55.288Z,19.77
2023-04-16T10:15:22.225Z,17.65
2023-04-16T10:17:48.992Z,21.13
2023-04-16T10:20:17.227Z,23.48
2023-04-16T10:22:43.969Z,22.13
2023-04-16T10:25:10.546Z,19.67
2023-04-16T10:27:37.203Z,17.83
2023-04-16T10:30:04.562Z,20.58
2023-04-16T10:32:31.440Z,22.23
2023-04-16T10:34:58.180Z,20.00
2023-04-16T10:37:32.083Z,19.17
2023-04-16T10:39:59.992Z,23.50
2023-04-16T10:42:27.515Z,22.55
2023-04-16T10:44:54.004Z,21.13
2023-04-16T10:47:24.746Z,21.10
2023-04-16T10:49:51.958Z,20.70
2023-04-16T10:52:18.500Z,20.67
2023-04-16T10:54:46.596Z,17.80
2023-04-16T10:57:17.854Z,19.30
2023-04-16T10:59:45.326Z,22.33
2023-04-16T11:02:19.203Z,20.20
2023-04-16T11:04:48.230Z,20.02
2023-04-16T11:07:20.903Z,17.55
2023-04-16T11:10:02.348Z,14.70
2023-04-16T11:12:39.577Z,20.10
2023-04-16T11:15:08.167Z,14.25
2023-04-16T11:17:39.478Z,17.27
2023-04-16T11:20:17.469Z,15.15
2023-04-16T11:22:51.140Z,17.27
2023-04-16T11:27:53.909Z,15.68
2023-04-16T11:30:33.863Z,15.02
2023-04-16T11:33:09.319Z,13.73
2023-04-16T11:35:36.040Z,12.45
2023-04-16T11:38:02.523Z,14.63
2023-04-16T11:40:31.885Z,16.63
2023-04-16T11:43:27.895Z,13.43
2023-04-16T11:45:58.299Z,12.52
2023-04-16T11:48:24.760Z,13.13
2023-04-16T11:50:58.211Z,13.43
2023-04-16T11:53:24.819Z,14.25
2023-04-16T11:55:51.367Z,12.45
2023-04-16T11:58:19.131Z,11.45
2023-04-16T12:00:46.565Z,13.70
2023-04-16T12:03:13.345Z,11.85
2023-04-16T12:05:40.739Z,12.07
2023-04-16T12:08:11.186Z,11.57
2023-04-16T12:10:53.270Z,12.07
2023-04-16T12:13:20.036Z,11.27
2023-04-16T12:15:53.493Z,12.13
2023-04-16T12:18:22.830Z,13.45
2023-04-16T12:20:51.280Z,11.77
2023-04-16T12:23:32.633Z,10.02
2023-04-16T12:26:03.147Z,12.23
2023-04-16T12:31:00.609Z,8.32
2023-04-16T12:33:27.183Z,13.48
2023-04-16T12:35:54.020Z,11.68
2023-04-16T12:38:22.764Z,10.93
2023-04-16T12:40:50.738Z,10.05
2023-04-16T12:43:17.897Z,10.45
2023-04-16T12:45:44.589Z,11.23
2023-04-16T12:48:11.508Z,11.30
2023-04-16T12:50:39.564Z,10.30
2023-04-16T12:53:06.270Z,9.00
2023-04-16T12:55:32.814Z,9.70
2023-04-16T12:57:59.441Z,9.00
2023-04-16T13:00:26.270Z,8.25
2023-04-16T13:02:52.950Z,9.60
2023-04-16T13:05:19.601Z,10.57
2023-04-16T13:07:46.262Z,10.13
2023-04-16T13:10:13.369Z,10.57
2023-04-16T13:12:39.948Z,10.85
2023-04-16T13:15:06.971Z,9.48
2023-04-16T13:17:33.494Z,9.80
2023-04-16T13:19:59.972Z,9.55
2023-04-16T13:22:26.472Z,9.45
2023-04-16T13:24:52.938Z,10.00
2023-04-16T13:27:20.287Z,10.10
2023-04-16T13:29:47.129Z,10.25
2023-04-16T13:32:14.668Z,9.65
2023-04-16T13:34:41.104Z,8.80
2023-04-16T13:37:07.577Z,11.38
2023-04-16T13:39:34.123Z,10.25
2023-04-16T13:42:00.661Z,9.88
2023-04-16T13:44:27.110Z,10.90
2023-04-16T13:46:53.613Z,8.85
2023-04-16T13:49:20.242Z,9.98
2023-04-16T13:51:46.688Z,10.68
2023-04-16T13:54:13.095Z,9.23
2023-04-16T13:56:39.923Z,11.10
2023-04-16T13:59:06.813Z,7.22
2023-04-16T14:01:33.444Z,9.95
2023-04-16T14:04:06.190Z,9.75
2023-04-16T14:06:33.761Z,9.68
2023-04-16T14:09:00.391Z,9.20
2023-04-16T14:11:26.857Z,8.38
2023-04-16T14:13:53.406Z,7.88
2023-04-16T14:16:19.964Z,8.85
2023-04-16T14:18:47.168Z,8.45
2023-04-16T14:21:13.619Z,9.02
2023-04-16T14:23:40.289Z,8.05
2023-04-16T14:26:06.793Z,8.50
2023-04-16T14:28:33.296Z,10.95
2023-04-16T14:30:59.775Z,8.35
2023-04-16T14:33:26.483Z,8.65
2023-04-16T14:35:52.990Z,7.97
2023-04-16T14:38:19.435Z,11.07
2023-04-16T14:40:45.964Z,9.70
2023-04-16T14:43:12.508Z,9.75
2023-04-16T14:45:38.953Z,7.80
2023-04-16T14:48:06.287Z,7.45
2023-04-16T14:50:37.911Z,6.82
2023-04-16T14:55:33.917Z,6.78
2023-04-16T14:58:00.432Z,5.65
2023-04-16T15:00:27.487Z,5.35
2023-04-16T15:02:57.612Z,5.10
2023-04-16T15:05:24.334Z,7.57
2023-04-16T15:07:50.758Z,7.95
2023-04-16T15:10:17.369Z,5.88
2023-04-16T15:12:43.833Z,8.57
2023-04-16T15:15:10.651Z,5.75
2023-04-16T15:17:37.179Z,7.40
2023-04-16T15:20:08.068Z,7.00
2023-04-16T15:22:34.685Z,6.82
2023-04-16T15:25:01.324Z,7.22
2023-04-16T15:27:27.924Z,23.98
2023-04-16T15:29:54.446Z,18.05
2023-04-16T15:32:21.010Z,11.50
2023-04-16T15:34:47.530Z,8.88
2023-04-16T15:37:14.142Z,9.18
2023-04-16T15:39:40.776Z,22.48
2023-04-16T15:42:07.802Z,10.93
2023-04-16T15:44:34.649Z,10.27
2023-04-16T15:47:01.159Z,8.30
2023-04-16T15:49:27.682Z,7.00
2023-04-16T15:51:54.258Z,8.85
2023-04-16T15:54:20.739Z,8.70
2023-04-16T15:56:47.397Z,8.18
2023-04-16T15:59:13.897Z,8.32
2023-04-16T16:01:40.916Z,8.48
2023-04-16T16:04:08.026Z,11.43
2023-04-16T16:06:34.896Z,8.63
2023-04-16T16:09:01.839Z,8.13
2023-04-16T16:11:28.524Z,7.47
2023-04-16T16:13:55.147Z,9.05
2023-04-16T16:16:21.899Z,17.25
2023-04-16T16:18:48.834Z,11.50
2023-04-16T16:21:15.326Z,10.50
2023-04-16T16:23:42.044Z,11.32
2023-04-16T16:26:09.258Z,11.40
2023-04-16T16:28:38.817Z,12.07
2023-04-16T16:31:06.019Z,14.48
2023-04-16T16:33:32.960Z,11.13
2023-04-16T16:35:59.458Z,10.85
2023-04-16T16:38:26.142Z,11.85
2023-04-16T16:40:52.662Z,10.02
2023-04-16T16:45:55.778Z,10.32
2023-04-16T16:48:22.224Z,12.45
2023-04-16T16:50:48.741Z,8.98
2023-04-16T16:53:15.200Z,10.50
2023-04-16T16:55:41.947Z,12.55
2023-04-16T16:58:09.257Z,10.95
2023-04-16T17:00:36.071Z,14.52
2023-04-16T17:03:02.981Z,10.45
2023-04-16T17:05:29.813Z,11.38
2023-04-16T17:07:56.319Z,12.00
2023-04-16T17:10:23.122Z,11.32
2023-04-16T17:12:50.413Z,10.23
2023-04-16T17:15:19.108Z,10.52
2023-04-16T17:17:47.189Z,10.23
2023-04-16T17:20:14.252Z,10.30
2023-04-16T17:22:40.809Z,10.70
2023-04-16T17:25:08.167Z,11.10
2023-04-16T17:27:34.727Z,15.65
2023-04-16T17:30:02.235Z,19.73
2023-04-16T17:32:29.351Z,13.48
2023-04-16T17:34:56.267Z,12.70
2023-04-16T17:37:23.236Z,16.25
2023-04-16T17:39:50.015Z,14.68
2023-04-16T17:42:16.526Z,14.35
2023-04-16T17:44:43.114Z,19.35
2023-04-16T17:47:09.570Z,14.18
2023-04-16T17:49:36.365Z,10.20
2023-04-16T17:52:02.893Z,11.30
2023-04-16T17:54:29.326Z,13.90
2023-04-16T17:56:55.882Z,15.02
2023-04-16T17:59:22.344Z,10.15
2023-04-16T18:01:49.616Z,13.35
2023-04-16T18:04:16.473Z,8.85
2023-04-16T18:06:43.329Z,9.38
2023-04-16T18:09:09.747Z,14.38
2023-04-16T18:11:36.274Z,11.90
2023-04-16T18:14:02.803Z,8.98
2023-04-16T18:16:29.348Z,11.40
2023-04-16T18:18:55.847Z,9.25
2023-04-16T18:21:22.365Z,14.27
2023-04-16T18:23:48.914Z,10.30
2023-04-16T18:26:18.586Z,11.15
2023-04-16T18:28:47.635Z,9.13
2023-04-16T18:31:14.108Z,10.45
2023-04-16T18:33:55.773Z,10.25
2023-04-16T18:36:23.645Z,10.35
2023-04-16T18:39:01.036Z,13.65
2023-04-16T18:41:29.457Z,13.38
2023-04-16T18:43:56.098Z,10.27
2023-04-16T18:46:22.657Z,12.85
2023-04-16T18:48:49.164Z,12.20
2023-04-16T18:51:16.487Z,14.88
2023-04-16T18:53:44.385Z,15.50
2023-04-16T18:56:11.565Z,11.43
2023-04-16T18:58:38.112Z,14.60
2023-04-16T19:01:05.284Z,14.07
2023-04-16T19:03:32.081Z,15.70
2023-04-16T19:05:58.816Z,10.90
2023-04-16T19:08:25.392Z,14.07
2023-04-16T19:10:52.047Z,10.40
2023-04-16T19:13:18.606Z,12.68
2023-04-16T19:15:45.427Z,13.57
2023-04-16T19:18:11.918Z,15.27
2023-04-16T19:20:39.037Z,11.43
2023-04-16T19:23:05.983Z,9.48
2023-04-16T19:25:32.755Z,11.60
2023-04-16T19:27:59.344Z,10.18
2023-04-16T19:30:26.438Z,12.57
2023-04-16T19:32:55.191Z,8.43
2023-04-16T19:35:22.245Z,10.63
2023-04-16T19:37:48.780Z,10.93
2023-04-16T19:40:15.370Z,8.52
2023-04-16T19:42:41.918Z,12.27
2023-04-16T19:45:08.718Z,11.00
2023-04-16T19:47:35.551Z,8.20
2023-04-16T19:50:02.125Z,8.10
2023-04-16T19:52:28.782Z,9.70
2023-04-16T19:54:55.256Z,10.02
2023-04-16T19:57:21.723Z,7.80
2023-04-16T19:59:48.189Z,8.40
2023-04-16T20:02:14.719Z,8.63
2023-04-16T20:04:41.166Z,8.50
2023-04-16T20:07:07.708Z,9.48
2023-04-16T20:09:34.581Z,7.68
2023-04-16T20:12:01.999Z,8.02
2023-04-16T20:14:28.462Z,8.80
2023-04-16T20:16:55.007Z,9.18
2023-04-16T20:19:22.079Z,7.63
2023-04-16T20:21:48.534Z,8.25
2023-04-16T20:24:15.552Z,8.93
2023-04-16T20:26:42.479Z,7.68
2023-04-16T20:29:10.278Z,8.48
2023-04-16T20:31:36.977Z,7.00
2023-04-16T20:34:03.905Z,9.73
2023-04-16T20:36:30.383Z,10.00
2023-04-16T20:38:56.918Z,7.90
2023-04-16T20:41:25.161Z,7.38
2023-04-16T20:43:52.698Z,8.45
2023-04-16T20:46:23.887Z,9.60
2023-04-16T20:48:51.389Z,10.00
2023-04-16T20:51:17.918Z,8.93
2023-04-16T20:53:44.494Z,8.07
2023-04-16T20:56:14.624Z,10.10
2023-04-16T20:58:41.870Z,9.80
2023-04-16T21:01:08.528Z,8.43
2023-04-16T21:03:35.928Z,7.20
2023-04-16T21:06:03.557Z,9.80
2023-04-16T21:08:30.328Z,8.85
2023-04-16T21:10:56.773Z,10.23
2023-04-16T21:13:23.371Z,10.45
2023-04-16T21:15:49.895Z,9.85
2023-04-16T21:18:18.522Z,8.63
2023-04-16T21:20:45.070Z,8.15
2023-04-16T21:23:11.619Z,9.88
2023-04-16T21:25:38.161Z,8.45
2023-04-16T21:28:05.164Z,9.45
2023-04-16T21:30:31.724Z,9.15
2023-04-16T21:32:58.412Z,10.25
2023-04-16T21:35:24.958Z,9.23
2023-04-16T21:37:51.477Z,7.68
2023-04-16T21:40:17.961Z,7.75
2023-04-16T21:42:44.589Z,11.40
2023-04-16T21:45:11.489Z,8.77
2023-04-16T21:47:38.372Z,10.55
2023-04-16T21:50:05.745Z,10.63
2023-04-16T21:52:32.917Z,12.82
2023-04-16T21:55:02.462Z,12.35
2023-04-16T21:57:28.944Z,9.93
2023-04-16T21:59:55.376Z,12.48
2023-04-16T22:02:22.111Z,11.07
2023-04-16T22:04:48.773Z,10.00
2023-04-16T22:07:16.795Z,10.50
2023-04-16T22:09:43.564Z,11.52
2023-04-16T22:12:12.891Z,10.57
2023-04-16T22:14:46.298Z,14.40
2023-04-16T22:17:23.664Z,10.93
2023-04-16T22:19:50.822Z,12.25
2023-04-16T22:22:17.337Z,11.27
2023-04-16T22:24:44.362Z,14.25
2023-04-16T22:27:10.958Z,14.20
2023-04-16T22:29:37.417Z,15.80
2023-04-16T22:32:04.115Z,9.95
2023-04-16T22:34:30.660Z,12.48
2023-04-16T22:36:57.172Z,10.68
2023-04-16T22:39:23.695Z,12.55
2023-04-16T22:41:50.153Z,12.55
2023-04-16T22:44:16.870Z,11.95
2023-04-16T22:46:44.237Z,10.60
2023-04-16T22:49:10.906Z,9.77
2023-04-16T22:51:38.096Z,13.07
2023-04-16T22:54:04.756Z,11.52
2023-04-16T22:56:31.197Z,11.32
2023-04-16T22:58:57.670Z,14.23
2023-04-16T23:01:24.317Z,11.23
2023-04-16T23:03:51.001Z,14.68
2023-04-16T23:06:17.522Z,14.15
2023-04-16T23:08:44.073Z,13.25
2023-04-16T23:11:10.528Z,11.02
2023-04-16T23:13:37.440Z,10.80
2023-04-16T23:16:03.964Z,12.65
2023-04-16T23:18:30.480Z,15.48
2023-04-16T23:20:56.924Z,14.13
2023-04-16T23:23:23.356Z,11.82
2023-04-16T23:25:53.179Z,11.25
2023-04-16T23:28:19.856Z,13.63
2023-04-16T23:30:46.319Z,12.02
2023-04-16T23:33:12.862Z,11.77
2023-04-16T23:35:39.308Z,12.30
2023-04-16T23:38:05.797Z,11.55
2023-04-16T23:40:32.263Z,13.10
2023-04-16T23:42:58.829Z,13.85
2023-04-16T23:45:25.303Z,12.07
2023-04-16T23:47:51.878Z,12.63
2023-04-16T23:50:18.452Z,11.25
2023-04-16T23:52:44.910Z,12.80
2023-04-16T23:55:11.428Z,11.70
2023-04-16T23:57:37.848Z,13.68
